createdAt,value
2022-11-22T00:00:59.488Z,12.18
2022-11-22T00:03:31.253Z,12.23
2022-11-22T00:06:00.819Z,13.90
2022-11-22T00:08:28.084Z,14.85
2022-11-22T00:13:22.248Z,13.38
2022-11-22T00:16:03.456Z,10.52
2022-11-22T00:18:31.474Z,15.60
2022-11-22T00:21:06.140Z,11.05
2022-11-22T00:23:33.298Z,13.63
2022-11-22T00:26:00.364Z,14.93
2022-11-22T00:28:27.407Z,15.50
2022-11-22T00:30:59.040Z,11.55
2022-11-22T00:33:26.062Z,11.32
2022-11-22T00:35:52.956Z,12.73
2022-11-22T00:38:19.905Z,11.90
2022-11-22T00:40:51.926Z,15.32
2022-11-22T00:43:18.847Z,11.23
2022-11-22T00:45:45.687Z,11.00
2022-11-22T00:48:12.683Z,11.88
2022-11-22T00:50:39.894Z,11.43
2022-11-22T00:53:06.993Z,15.57
2022-11-22T00:55:36.614Z,12.93
2022-11-22T00:58:05.812Z,11.88
2022-11-22T01:00:35.192Z,15.65
2022-11-22T01:03:02.153Z,16.25
2022-11-22T01:05:31.402Z,19.08
2022-11-22T01:08:01.036Z,17.83
2022-11-22T01:10:30.472Z,17.10
2022-11-22T01:13:00.860Z,13.93
2022-11-22T01:15:29.943Z,16.40
2022-11-22T01:17:56.885Z,12.85
2022-11-22T01:20:26.013Z,12.07
2022-11-22T01:22:54.416Z,16.85
2022-11-22T01:25:23.559Z,12.98
2022-11-22T01:27:52.688Z,16.33
2022-11-22T01:30:19.835Z,14.10
2022-11-22T01:32:46.798Z,16.58
2022-11-22T01:35:13.799Z,11.63
2022-11-22T01:37:40.882Z,10.68
2022-11-22T01:40:08.411Z,17.00
2022-11-22T01:42:50.337Z,11.88
2022-11-22T01:45:29.622Z,11.70
2022-11-22T01:48:01.800Z,12.50
2022-11-22T01:50:32.909Z,15.40
2022-11-22T01:53:07.081Z,12.38
2022-11-22T01:55:36.256Z,11.73
2022-11-22T01:58:06.397Z,11.23
2022-11-22T02:00:37.071Z,11.75
2022-11-22T02:03:06.193Z,15.02
2022-11-22T02:05:37.841Z,15.38
2022-11-22T02:08:15.931Z,14.23
2022-11-22T02:10:48.293Z,12.75
2022-11-22T02:13:20.815Z,13.10
2022-11-22T02:15:47.838Z,11.75
2022-11-22T02:18:14.840Z,11.30
2022-11-22T02:20:42.430Z,9.55
2022-11-22T02:23:26.704Z,13.82
2022-11-22T02:26:02.445Z,11.48
2022-11-22T02:28:31.826Z,11.63
2022-11-22T02:30:58.932Z,12.77
2022-11-22T02:33:26.323Z,10.63
2022-11-22T02:35:53.874Z,10.23
2022-11-22T02:38:35.103Z,10.38
2022-11-22T02:41:09.480Z,13.35
2022-11-22T02:43:42.432Z,8.00
2022-11-22T02:46:11.944Z,11.60
2022-11-22T02:48:44.885Z,10.82
2022-11-22T02:51:17.009Z,10.70
2022-11-22T02:53:44.652Z,8.45
2022-11-22T02:56:16.694Z,9.63
2022-11-22T02:58:46.585Z,8.45
2022-11-22T03:01:14.236Z,9.18
2022-11-22T03:03:43.500Z,8.93
2022-11-22T03:06:10.523Z,9.98
2022-11-22T03:08:40.300Z,11.80
2022-11-22T03:11:07.295Z,7.53
2022-11-22T03:13:34.989Z,10.10
2022-11-22T03:16:02.153Z,11.73
2022-11-22T03:18:38.992Z,10.35
2022-11-22T03:21:08.795Z,8.52
2022-11-22T03:23:35.989Z,8.60
2022-11-22T03:26:12.422Z,9.15
2022-11-22T03:28:39.408Z,10.50
2022-11-22T03:31:07.637Z,10.93
2022-11-22T03:33:35.481Z,8.75
2022-11-22T03:36:05.070Z,8.60
2022-11-22T03:38:32.249Z,10.43
2022-11-22T03:40:59.385Z,7.80
2022-11-22T03:43:28.989Z,9.32
2022-11-22T03:45:55.877Z,8.13
2022-11-22T03:48:22.918Z,8.23
2022-11-22T03:50:54.359Z,12.75
2022-11-22T03:53:21.355Z,8.38
2022-11-22T03:55:52.883Z,8.63
2022-11-22T03:58:20.094Z,9.07
2022-11-22T04:00:47.646Z,13.05
2022-11-22T04:03:14.542Z,8.95
2022-11-22T04:05:45.642Z,7.85
2022-11-22T04:08:12.632Z,7.68
2022-11-22T04:10:41.722Z,8.80
2022-11-22T04:13:09.083Z,9.05
2022-11-22T04:18:03.603Z,14.13
2022-11-22T04:20:49.985Z,10.10
2022-11-22T04:23:19.457Z,10.77
2022-11-22T04:25:48.326Z,9.27
2022-11-22T04:28:17.969Z,8.18
2022-11-22T04:31:04.259Z,11.70
2022-11-22T04:33:33.811Z,8.98
2022-11-22T04:36:06.644Z,10.57
2022-11-22T04:38:35.818Z,7.60
2022-11-22T04:41:02.831Z,9.77
2022-11-22T04:43:48.790Z,12.13
2022-11-22T04:46:16.192Z,9.18
2022-11-22T04:54:00.511Z,8.15
2022-11-22T04:56:29.891Z,9.07
2022-11-22T04:58:59.010Z,7.78
2022-11-22T05:01:28.164Z,7.93
2022-11-22T05:03:55.132Z,9.10
2022-11-22T05:06:22.235Z,14.32
2022-11-22T05:08:49.164Z,10.15
2022-11-22T05:11:20.420Z,12.90
2022-11-22T05:13:47.300Z,8.80
2022-11-22T05:16:17.473Z,7.00
2022-11-22T05:18:59.161Z,9.15
2022-11-22T05:21:27.957Z,9.80
2022-11-22T05:23:55.674Z,7.63
2022-11-22T05:26:27.495Z,8.15
2022-11-22T05:28:58.458Z,6.25
2022-11-22T05:31:27.638Z,10.40
2022-11-22T05:33:58.182Z,12.63
2022-11-22T05:36:27.572Z,9.05
2022-11-22T05:38:55.280Z,9.65
2022-11-22T05:41:22.335Z,10.52
2022-11-22T05:43:49.495Z,8.88
2022-11-22T05:46:28.253Z,8.73
2022-11-22T05:48:56.906Z,7.70
2022-11-22T05:51:34.540Z,10.93
2022-11-22T05:54:04.835Z,15.00
2022-11-22T05:56:35.102Z,9.55
2022-11-22T05:59:02.313Z,9.38
2022-11-22T06:01:31.739Z,13.10
2022-11-22T06:04:04.296Z,9.05
2022-11-22T06:06:31.282Z,8.38
2022-11-22T06:09:03.324Z,7.55
2022-11-22T06:11:30.542Z,7.38
2022-11-22T06:14:06.076Z,6.85
2022-11-22T06:16:33.454Z,7.97
2022-11-22T06:21:28.866Z,6.53
2022-11-22T06:23:58.726Z,7.53
2022-11-22T06:26:26.735Z,5.60
2022-11-22T06:28:56.258Z,9.98
2022-11-22T06:31:26.134Z,7.18
2022-11-22T06:33:54.659Z,7.40
2022-11-22T06:36:30.336Z,10.02
2022-11-22T06:38:58.162Z,4.85
2022-11-22T06:41:27.398Z,9.00
2022-11-22T06:43:58.416Z,6.95
2022-11-22T06:46:27.775Z,6.47
2022-11-22T06:48:59.365Z,7.82
2022-11-22T06:51:28.581Z,11.50
2022-11-22T06:53:56.796Z,7.97
2022-11-22T06:56:32.769Z,10.35
2022-11-22T06:59:03.854Z,9.85
2022-11-22T07:01:32.187Z,8.52
2022-11-22T07:04:02.850Z,8.20
2022-11-22T07:06:32.299Z,8.50
2022-11-22T07:09:02.854Z,6.65
2022-11-22T07:11:33.492Z,9.95
2022-11-22T07:14:08.103Z,7.72
2022-11-22T07:16:37.870Z,8.80
2022-11-22T07:19:05.229Z,5.78
2022-11-22T07:23:59.782Z,7.55
2022-11-22T07:26:27.547Z,9.27
2022-11-22T07:28:54.516Z,7.50
2022-11-22T07:31:26.787Z,10.70
2022-11-22T07:33:58.629Z,12.65
2022-11-22T07:36:30.326Z,10.75
2022-11-22T07:38:57.404Z,9.57
2022-11-22T07:41:24.617Z,12.30
2022-11-22T07:43:53.160Z,8.18
2022-11-22T07:46:29.575Z,12.68
2022-11-22T07:49:00.521Z,8.88
2022-11-22T07:51:31.245Z,7.82
2022-11-22T07:53:59.116Z,9.90
2022-11-22T07:58:53.303Z,7.80
2022-11-22T08:03:50.856Z,6.28
2022-11-22T08:08:49.678Z,8.98
2022-11-22T08:11:18.851Z,10.75
2022-11-22T08:13:45.764Z,10.40
2022-11-22T08:16:18.007Z,11.63
2022-11-22T08:18:52.105Z,13.75
2022-11-22T08:21:21.495Z,17.23
2022-11-22T08:23:51.702Z,15.70
2022-11-22T08:26:21.175Z,10.82
2022-11-22T08:28:48.264Z,10.32
2022-11-22T08:31:19.724Z,14.00
2022-11-22T08:33:52.762Z,16.33
2022-11-22T08:36:22.350Z,14.30
2022-11-22T08:38:53.036Z,10.07
2022-11-22T08:41:24.568Z,11.57
2022-11-22T08:43:52.373Z,12.88
2022-11-22T08:46:22.099Z,7.82
2022-11-22T08:48:52.075Z,9.15
2022-11-22T08:51:21.587Z,11.23
2022-11-22T08:53:50.934Z,14.38
2022-11-22T08:56:18.221Z,12.23
2022-11-22T09:01:19.473Z,14.25
2022-11-22T09:03:51.586Z,14.32
2022-11-22T09:12:06.282Z,12.50
2022-11-22T09:14:33.614Z,14.88
2022-11-22T09:19:27.532Z,10.48
2022-11-22T09:21:57.138Z,10.98
2022-11-22T09:24:24.359Z,9.85
2022-11-22T09:26:51.674Z,8.00
2022-11-22T09:31:45.811Z,10.38
2022-11-22T09:34:15.886Z,10.90
2022-11-22T09:36:43.287Z,9.50
2022-11-22T09:44:33.012Z,14.38
2022-11-22T09:47:23.523Z,9.57
2022-11-22T09:50:18.582Z,11.65
2022-11-22T09:52:55.037Z,8.90
2022-11-22T09:55:27.655Z,7.07
2022-11-22T09:58:20.773Z,10.57
2022-11-22T10:00:52.007Z,8.15
2022-11-22T10:03:41.158Z,11.90
2022-11-22T10:06:17.333Z,9.43
2022-11-22T10:09:00.309Z,11.65
2022-11-22T10:11:44.577Z,9.70
2022-11-22T10:14:36.204Z,16.10
2022-11-22T10:17:27.719Z,9.18
2022-11-22T10:20:28.281Z,13.50
2022-11-22T10:22:56.756Z,16.98
2022-11-22T10:25:26.614Z,9.90
2022-11-22T10:28:06.191Z,14.45
2022-11-22T10:30:46.960Z,30.70
2022-11-22T10:33:21.130Z,8.88
2022-11-22T10:36:08.741Z,6.45
2022-11-22T10:39:05.689Z,10.40
2022-11-22T10:41:54.861Z,5.78
2022-11-22T10:44:27.625Z,13.95
2022-11-22T10:47:31.585Z,7.78
2022-11-22T10:52:45.943Z,7.32
2022-11-22T10:55:34.172Z,9.30
2022-11-22T10:58:19.724Z,9.73
2022-11-22T11:00:53.997Z,8.25
2022-11-22T11:03:37.742Z,7.82
2022-11-22T11:06:33.352Z,10.48
2022-11-22T11:11:55.139Z,9.32
2022-11-22T11:14:24.935Z,8.30
2022-11-22T11:16:53.176Z,9.15
2022-11-22T11:19:23.407Z,9.38
2022-11-22T11:35:01.357Z,7.22
2022-11-22T11:37:39.248Z,8.45
2022-11-22T11:40:25.611Z,9.52
2022-11-22T11:43:15.779Z,6.85
2022-11-22T11:45:43.029Z,8.43
2022-11-22T11:48:28.450Z,8.05
2022-11-22T11:51:21.330Z,11.07
2022-11-22T11:54:01.717Z,7.60
2022-11-22T11:56:57.994Z,7.80
2022-11-22T11:59:43.960Z,13.00
2022-11-22T12:02:40.838Z,11.05
2022-11-22T12:05:14.077Z,6.30
2022-11-22T12:07:46.611Z,7.68
2022-11-22T12:10:40.607Z,7.45
2022-11-22T12:13:57.639Z,9.57
2022-11-22T12:16:31.426Z,9.30
2022-11-22T12:19:24.759Z,8.30
2022-11-22T12:25:47.777Z,9.48
2022-11-22T12:28:22.875Z,8.13
2022-11-22T12:33:47.923Z,6.80
2022-11-22T12:36:44.640Z,7.55
2022-11-22T12:42:02.451Z,5.10
2022-11-22T12:44:35.476Z,8.85
2022-11-22T12:47:13.580Z,10.05
2022-11-22T12:49:43.509Z,8.48
2022-11-22T12:52:37.478Z,9.82
2022-11-22T12:55:20.626Z,13.73
2022-11-22T12:58:12.420Z,11.68
2022-11-22T13:01:17.120Z,8.32
2022-11-22T13:04:12.462Z,5.50
2022-11-22T13:06:57.179Z,4.78
2022-11-22T13:09:35.214Z,8.50
2022-11-22T13:12:05.294Z,7.35
2022-11-22T13:14:50.305Z,5.38
2022-11-22T13:17:17.953Z,5.45
2022-11-22T13:19:47.211Z,8.23
2022-11-22T13:22:19.660Z,6.40
2022-11-22T13:25:19.399Z,7.97
2022-11-22T13:27:50.430Z,7.13
2022-11-22T13:30:23.181Z,9.35
2022-11-22T13:32:53.709Z,12.18
2022-11-22T13:35:32.832Z,5.72
2022-11-22T13:38:13.138Z,8.20
2022-11-22T13:40:50.586Z,7.28
2022-11-22T13:43:23.593Z,6.15
2022-11-22T13:45:55.364Z,6.22
2022-11-22T13:48:40.925Z,8.52
2022-11-22T13:51:12.247Z,11.20
2022-11-22T13:53:45.049Z,9.10
2022-11-22T13:56:20.486Z,8.38
2022-11-22T13:59:14.262Z,7.97
2022-11-22T14:01:41.232Z,5.65
2022-11-22T14:04:17.157Z,6.32
2022-11-22T14:06:48.396Z,7.57
2022-11-22T14:09:36.232Z,4.57
2022-11-22T14:12:24.690Z,4.15
2022-11-22T14:14:54.434Z,4.93
2022-11-22T14:17:42.039Z,5.45
2022-11-22T14:20:38.174Z,6.75
2022-11-22T14:23:24.075Z,3.35
2022-11-22T14:26:13.417Z,6.90
2022-11-22T14:29:08.502Z,5.15
2022-11-22T14:31:37.151Z,7.05
2022-11-22T14:34:24.060Z,6.82
2022-11-22T14:40:09.573Z,5.25
2022-11-22T14:42:43.017Z,10.63
2022-11-22T14:45:12.190Z,8.43
2022-11-22T14:47:41.212Z,7.03
2022-11-22T14:50:36.479Z,7.45
2022-11-22T14:53:38.717Z,7.45
2022-11-22T14:56:25.927Z,8.57
2022-11-22T14:59:11.829Z,6.95
2022-11-22T15:09:21.647Z,13.57
2022-11-22T15:11:34.252Z,4.80
2022-11-22T15:57:38.743Z,5.40
2022-11-22T16:00:28.333Z,5.45
2022-11-22T16:03:06.988Z,7.88
2022-11-22T16:06:08.912Z,12.60
2022-11-22T16:08:31.040Z,4.20
2022-11-22T16:11:03.050Z,8.18
2022-11-22T16:13:34.838Z,5.68
2022-11-22T16:16:13.709Z,3.25
2022-11-22T16:18:43.983Z,8.18
2022-11-22T16:21:13.087Z,7.50
2022-11-22T16:23:41.414Z,6.97
2022-11-22T16:26:29.452Z,6.63
2022-11-22T16:29:32.549Z,7.70
2022-11-22T16:32:11.823Z,12.07
2022-11-22T16:34:42.958Z,8.88
2022-11-22T16:37:34.661Z,9.23
2022-11-22T16:40:08.236Z,6.75
2022-11-22T16:42:39.362Z,8.02
2022-11-22T16:45:19.674Z,6.70
2022-11-22T16:47:58.552Z,10.32
2022-11-22T16:50:38.845Z,7.60
2022-11-22T16:53:16.173Z,11.25
2022-11-22T16:55:45.528Z,7.97
2022-11-22T16:58:19.709Z,5.55
2022-11-22T17:00:50.450Z,9.60
2022-11-22T17:03:27.159Z,4.55
2022-11-22T17:05:56.862Z,6.65
2022-11-22T17:08:26.766Z,6.53
2022-11-22T17:10:53.849Z,7.28
2022-11-22T17:13:25.515Z,8.80
2022-11-22T17:15:54.367Z,5.28
2022-11-22T17:18:26.051Z,7.88
2022-11-22T17:20:53.341Z,6.75
2022-11-22T17:25:58.976Z,13.27
2022-11-22T17:28:26.018Z,9.00
2022-11-22T17:30:53.510Z,6.25
2022-11-22T17:33:20.601Z,7.75
2022-11-22T17:35:47.680Z,8.27
2022-11-22T17:38:17.786Z,6.75
2022-11-22T17:40:47.420Z,8.73
2022-11-22T17:43:14.404Z,6.70
2022-11-22T17:45:45.029Z,8.50
2022-11-22T17:48:14.386Z,6.78
2022-11-22T17:50:41.764Z,7.50
2022-11-22T17:56:08.578Z,9.85
2022-11-22T17:58:25.472Z,9.82
2022-11-22T18:00:52.452Z,11.93
2022-11-22T18:03:21.569Z,22.25
2022-11-22T18:05:50.967Z,13.82
2022-11-22T18:08:23.876Z,10.13
2022-11-22T18:10:54.972Z,12.50
2022-11-22T18:13:30.291Z,7.38
2022-11-22T18:16:03.516Z,8.40
2022-11-22T18:21:19.467Z,12.45
2022-11-22T18:23:46.445Z,23.20
2022-11-22T18:31:52.255Z,13.15
2022-11-22T18:34:20.902Z,16.38
2022-11-22T18:36:57.520Z,10.30
2022-11-22T18:39:30.478Z,11.30
2022-11-22T18:41:58.439Z,21.52
2022-11-22T18:44:25.876Z,24.10
2022-11-22T18:49:20.277Z,28.92
2022-11-22T18:51:47.699Z,31.88
2022-11-22T18:54:16.327Z,54.97
2022-11-22T18:56:43.493Z,18.90
2022-11-22T18:59:12.863Z,27.67
2022-11-22T19:01:42.851Z,156.63
2022-11-22T19:04:16.840Z,19.63
2022-11-22T19:06:44.351Z,14.95
2022-11-22T19:09:12.680Z,19.80
2022-11-22T19:11:39.651Z,11.57
2022-11-22T19:14:07.315Z,17.17
2022-11-22T19:16:34.863Z,14.88
2022-11-22T19:19:04.501Z,20.10
2022-11-22T19:21:33.251Z,26.95
2022-11-22T19:24:00.554Z,28.83
2022-11-22T19:29:23.171Z,78.80
2022-11-22T19:31:50.676Z,64.00
2022-11-22T19:36:45.590Z,161.93
2022-11-22T19:39:15.358Z,180.02
2022-11-22T19:41:44.360Z,48.08
2022-11-22T19:44:12.091Z,16.27
2022-11-22T19:46:42.747Z,12.98
2022-11-22T19:49:13.245Z,11.40
2022-11-22T19:51:40.988Z,14.10
2022-11-22T19:54:08.265Z,14.57
2022-11-22T20:01:49.888Z,12.55
2022-11-22T20:04:16.940Z,8.60
2022-11-22T20:06:50.104Z,8.90
2022-11-22T20:09:21.354Z,10.38
2022-11-22T20:11:49.008Z,8.32
2022-11-22T20:14:17.417Z,8.65
2022-11-22T20:16:44.856Z,15.25
2022-11-22T20:19:15.745Z,17.92
2022-11-22T20:21:49.515Z,17.02
2022-11-22T20:24:19.744Z,14.65
2022-11-22T20:26:47.160Z,15.00
2022-11-22T20:29:15.171Z,12.23
2022-11-22T20:31:42.937Z,14.18
2022-11-22T20:34:15.679Z,13.75
2022-11-22T20:36:42.790Z,95.70
2022-11-22T20:39:14.587Z,76.93
2022-11-22T20:41:44.139Z,41.65
2022-11-22T20:44:15.113Z,21.27
2022-11-22T20:46:43.168Z,22.67
2022-11-22T20:49:10.274Z,22.48
2022-11-22T20:51:40.141Z,91.30
2022-11-22T20:54:09.335Z,41.10
2022-11-22T20:56:39.674Z,43.88
2022-11-22T20:59:09.425Z,25.50
2022-11-22T21:01:36.935Z,31.27
2022-11-22T21:04:04.303Z,18.33
2022-11-22T21:06:32.991Z,100.22
2022-11-22T21:09:00.304Z,71.97
2022-11-22T21:11:32.278Z,46.72
2022-11-22T21:13:59.551Z,23.02
2022-11-22T21:19:02.966Z,17.13
2022-11-22T21:21:31.364Z,15.88
2022-11-22T21:24:02.482Z,16.15
2022-11-22T21:26:29.977Z,15.07
2022-11-22T21:29:25.546Z,14.20
2022-11-22T21:40:37.115Z,15.00
2022-11-22T21:43:06.826Z,17.35
2022-11-22T21:45:48.644Z,18.08
2022-11-22T21:48:16.586Z,16.45
2022-11-22T21:50:48.942Z,17.80
2022-11-22T21:53:16.213Z,17.13
2022-11-22T21:55:54.426Z,14.50
2022-11-22T21:58:25.720Z,12.13
2022-11-22T22:00:55.280Z,13.25
2022-11-22T22:03:25.173Z,11.80
2022-11-22T22:05:57.454Z,12.57
2022-11-22T22:08:29.737Z,10.65
2022-11-22T22:11:01.253Z,16.13
2022-11-22T22:13:30.110Z,12.20
2022-11-22T22:15:59.118Z,12.27
2022-11-22T22:18:37.715Z,13.07
2022-11-22T22:21:10.002Z,12.43
2022-11-22T22:23:41.589Z,8.35
2022-11-22T22:26:16.854Z,8.77
2022-11-22T22:28:46.660Z,10.15
2022-11-22T22:31:19.883Z,10.23
2022-11-22T22:33:50.625Z,10.75
2022-11-22T22:36:19.822Z,9.15
2022-11-22T22:38:47.506Z,8.82
2022-11-22T22:41:17.747Z,7.80
2022-11-22T22:43:49.266Z,7.20
2022-11-22T22:46:21.996Z,9.77
2022-11-22T22:48:50.044Z,5.95
2022-11-22T22:51:20.241Z,9.27
2022-11-22T22:53:50.351Z,8.40
2022-11-22T22:56:19.771Z,7.85
2022-11-22T22:58:52.947Z,5.35
2022-11-22T23:01:24.312Z,5.93
2022-11-22T23:03:54.128Z,6.90
2022-11-22T23:06:22.520Z,7.82
2022-11-22T23:08:54.314Z,8.82
2022-11-22T23:11:46.391Z,8.02
2022-11-22T23:14:15.807Z,6.10
2022-11-22T23:16:45.478Z,9.07
2022-11-22T23:19:12.766Z,6.68
2022-11-22T23:21:42.371Z,9.60
2022-11-22T23:24:10.127Z,8.65
2022-11-22T23:26:37.240Z,7.05
2022-11-22T23:29:05.643Z,9.45
2022-11-22T23:31:34.803Z,10.48
2022-11-22T23:34:02.320Z,9.45
2022-11-22T23:36:35.951Z,9.82
2022-11-22T23:39:04.647Z,9.43
2022-11-22T23:41:31.795Z,14.75
2022-11-22T23:44:04.200Z,10.77
2022-11-22T23:46:31.358Z,14.77
2022-11-22T23:49:00.607Z,9.70
2022-11-22T23:51:29.205Z,9.90
2022-11-22T23:54:00.781Z,12.45
2022-11-22T23:56:29.266Z,9.02
2022-11-22T23:58:59.003Z,14.05
